Time,TemperatureF,DewpointF,PressureIn,WindDirection,WindDirectionDegrees,WindSpeedMPH,WindSpeedGustMPH,Humidity,HourlyPrecipIn,Conditions,Clouds,dailyrainin,SoftwareType,DateUTC
2013-12-25 00:12:00,-2.0,-6.0,30.09,NW,315,5.0,5.0,86,0.00,,,0.00,TxWx,2013-12-25 05:12:00,
2013-12-25 00:18:00,-2.0,-6.0,30.09,North,0,4.0,8.0,86,0.00,,,0.00,TxWx,2013-12-25 05:18:00,
2013-12-25 00:24:00,-2.0,-6.0,30.09,NNW,337,7.0,8.0,86,0.00,,,0.00,TxWx,2013-12-25 05:24:00,
2013-12-25 00:29:00,-2.0,-6.0,30.09,NNE,22,2.0,3.0,86,0.00,,,0.00,TxWx,2013-12-25 05:29:00,
2013-12-25 00:34:00,-2.0,-6.0,30.09,North,0,6.0,6.0,86,0.00,,,0.00,TxWx,2013-12-25 05:34:00,
2013-12-25 00:39:00,-2.0,-6.0,30.09,North,0,9.0,9.0,86,0.00,,,0.00,TxWx,2013-12-25 05:39:00,
2013-12-25 00:44:00,-2.0,-6.0,30.09,SW,225,4.0,7.0,86,0.00,,,0.00,TxWx,2013-12-25 05:44:00,
2013-12-25 00:49:00,-2.0,-6.0,30.10,WNW,292,6.0,7.0,87,0.00,,,0.00,TxWx,2013-12-25 05:49:00,
2013-12-25 00:54:00,-2.0,-6.0,30.10,WNW,292,4.0,6.0,87,0.00,,,0.00,TxWx,2013-12-25 05:54:00,
2013-12-25 00:59:00,-2.0,-6.0,30.10,NW,315,6.0,7.0,87,0.00,,,0.00,TxWx,2013-12-25 05:59:00,
2013-12-25 01:04:00,-2.0,-6.0,30.10,SW,225,5.0,6.0,88,0.00,,,0.00,TxWx,2013-12-25 06:04:00,
2013-12-25 01:09:00,-2.0,-6.0,30.11,West,270,3.0,6.0,88,0.00,,,0.00,TxWx,2013-12-25 06:09:00,
2013-12-25 01:14:00,-2.0,-6.0,30.11,NW,315,9.0,9.0,88,0.00,,,0.00,TxWx,2013-12-25 06:14:00,
2013-12-25 01:19:00,-2.0,-6.0,30.11,WNW,292,5.0,5.0,88,0.00,,,0.00,TxWx,2013-12-25 06:19:00,
2013-12-25 01:24:00,-3.0,-7.0,30.11,WNW,292,6.0,6.0,88,0.00,,,0.00,TxWx,2013-12-25 06:24:00,
2013-12-25 01:29:00,-3.0,-7.0,30.11,NNW,337,3.0,3.0,88,0.00,,,0.00,TxWx,2013-12-25 06:29:00,
2013-12-25 01:34:00,-3.0,-7.0,30.11,NNW,337,3.0,3.0,88,0.00,,,0.00,TxWx,2013-12-25 06:34:00,
2013-12-25 01:39:00,-3.0,-7.0,30.12,WNW,292,7.0,8.0,88,0.00,,,0.00,TxWx,2013-12-25 06:39:00,
2013-12-25 01:44:00,-3.0,-7.0,30.12,NW,315,5.0,6.0,88,0.00,,,0.00,TxWx,2013-12-25 06:44:00,
2013-12-25 01:49:00,-3.0,-7.0,30.12,WNW,292,5.0,6.0,87,0.00,,,0.00,TxWx,2013-12-25 06:49:00,
2013-12-25 01:54:00,-3.0,-7.0,30.13,NW,315,5.0,8.0,87,0.00,,,0.00,TxWx,2013-12-25 06:54:00,
2013-12-25 01:59:00,-3.0,-7.0,30.13,WNW,292,6.0,10.0,87,0.00,,,0.00,TxWx,2013-12-25 06:59:00,
2013-12-25 02:04:00,-3.0,-7.0,30.13,NW,315,3.0,5.0,87,0.00,,,0.00,TxWx,2013-12-25 07:04:00,
2013-12-25 02:09:00,-3.0,-7.0,30.13,NNW,337,5.0,5.0,88,0.00,,,0.00,TxWx,2013-12-25 07:09:00,
2013-12-25 02:14:00,-3.0,-7.0,30.14,North,0,4.0,9.0,88,0.00,,,0.00,TxWx,2013-12-25 07:14:00,
2013-12-25 02:19:00,-3.0,-7.0,30.14,NW,315,4.0,5.0,88,0.00,,,0.00,TxWx,2013-12-25 07:19:00,
2013-12-25 02:24:00,-3.0,-7.0,30.14,West,270,6.0,6.0,88,0.00,,,0.00,TxWx,2013-12-25 07:24:00,
2013-12-25 02:29:00,-3.0,-7.0,30.15,NW,315,1.0,1.0,88,0.00,,,0.00,TxWx,2013-12-25 07:29:00,
2013-12-25 02:34:00,-3.0,-7.0,30.15,West,270,4.0,7.0,88,0.00,,,0.00,TxWx,2013-12-25 07:34:00,
2013-12-25 02:39:00,-4.0,-8.0,30.15,West,270,6.0,6.0,88,0.00,,,0.00,TxWx,2013-12-25 07:39:00,
2013-12-25 02:44:00,-4.0,-8.0,30.15,West,270,3.0,3.0,89,0.00,,,0.00,TxWx,2013-12-25 07:44:00,
2013-12-25 02:49:00,-4.0,-7.0,30.16,WNW,292,5.0,6.0,89,0.00,,,0.00,TxWx,2013-12-25 07:49:00,
2013-12-25 02:54:00,-4.0,-7.0,30.16,WNW,292,3.0,4.0,89,0.00,,,0.00,TxWx,2013-12-25 07:54:00,
2013-12-25 02:59:00,-4.0,-7.0,30.16,WNW,292,5.0,6.0,90,0.00,,,0.00,TxWx,2013-12-25 07:59:00,
2013-12-25 03:04:00,-4.0,-7.0,30.16,West,270,3.0,5.0,90,0.00,,,0.00,TxWx,2013-12-25 08:04:00,
2013-12-25 03:09:00,-4.0,-7.0,30.16,WNW,292,3.0,4.0,90,0.00,,,0.00,TxWx,2013-12-25 08:09:00,
2013-12-25 03:14:00,-4.0,-7.0,30.17,WNW,292,4.0,4.0,91,0.00,,,0.00,TxWx,2013-12-25 08:14:00,
2013-12-25 03:19:00,-4.0,-7.0,30.17,NW,315,3.0,3.0,91,0.00,,,0.00,TxWx,2013-12-25 08:19:00,
2013-12-25 03:24:00,-4.0,-7.0,30.16,NNW,337,3.0,6.0,91,0.00,,,0.00,TxWx,2013-12-25 08:24:00,
2013-12-25 03:29:00,-4.0,-7.0,30.16,NW,315,3.0,3.0,91,0.00,,,0.00,TxWx,2013-12-25 08:29:00,
2013-12-25 03:34:00,-4.0,-7.0,30.16,North,0,4.0,5.0,91,0.00,,,0.00,TxWx,2013-12-25 08:34:00,
2013-12-25 03:39:00,-4.0,-7.0,30.16,WNW,292,1.0,1.0,91,0.00,,,0.00,TxWx,2013-12-25 08:39:00,
2013-12-25 03:44:00,-4.0,-7.0,30.16,North,0,5.0,7.0,91,0.00,,,0.00,TxWx,2013-12-25 08:44:00,
2013-12-25 03:49:00,-4.0,-7.0,30.16,North,0,6.0,6.0,91,0.00,,,0.00,TxWx,2013-12-25 08:49:00,
2013-12-25 03:54:00,-4.0,-7.0,30.16,NW,315,6.0,6.0,91,0.00,,,0.00,TxWx,2013-12-25 08:54:00,
2013-12-25 03:59:00,-4.0,-7.0,30.17,NW,315,5.0,5.0,91,0.00,,,0.00,TxWx,2013-12-25 08:59:00,
2013-12-25 04:04:00,-4.0,-7.0,30.17,West,270,5.0,5.0,91,0.00,,,0.00,TxWx,2013-12-25 09:04:00,
2013-12-25 04:09:00,-5.0,-8.0,30.17,WNW,292,4.0,4.0,91,0.00,,,0.00,TxWx,2013-12-25 09:09:00,
2013-12-25 04:14:00,-5.0,-8.0,30.17,NNW,337,3.0,3.0,91,0.00,,,0.00,TxWx,2013-12-25 09:14:00,
2013-12-25 04:19:00,-5.0,-8.0,30.17,NW,315,6.0,6.0,91,0.00,,,0.00,TxWx,2013-12-25 09:19:00,
2013-12-25 04:24:00,-5.0,-8.0,30.17,West,270,3.0,4.0,91,0.00,,,0.00,TxWx,2013-12-25 09:24:00,
2013-12-25 04:29:00,-5.0,-8.0,30.17,NW,315,4.0,4.0,91,0.00,,,0.00,TxWx,2013-12-25 09:29:00,
2013-12-25 04:34:00,-5.0,-8.0,30.17,NNW,337,5.0,8.0,91,0.00,,,0.00,TxWx,2013-12-25 09:34:00,
2013-12-25 04:39:00,-5.0,-8.0,30.17,West,270,9.0,10.0,91,0.00,,,0.00,TxWx,2013-12-25 09:39:00,
2013-12-25 04:44:00,-5.0,-8.0,30.18,NW,315,3.0,4.0,91,0.00,,,0.00,TxWx,2013-12-25 09:44:00,
2013-12-25 04:45:00,13.0,4.0,30.19,ENE,67,2.0,2.0,69,0.00,,,0.00,TxWx,2013-12-25 09:45:00,
2013-12-25 04:46:00,13.0,4.0,30.19,NNE,22,1.0,2.0,69,0.00,,,0.00,TxWx,2013-12-25 09:46:00,
2013-12-25 04:47:00,13.0,4.0,30.19,NNE,22,2.0,2.0,69,0.00,,,0.00,TxWx,2013-12-25 09:47:00,
2013-12-25 04:49:00,-5.0,-8.0,30.18,NNW,337,8.0,8.0,91,0.00,,,0.00,TxWx,2013-12-25 09:49:00,
2013-12-25 04:50:00,13.0,4.0,30.19,NNE,22,1.0,2.0,69,0.00,,,0.00,TxWx,2013-12-25 09:50:00,
2013-12-25 04:51:00,13.0,4.0,30.19,East,90,2.0,3.0,69,0.00,,,0.00,TxWx,2013-12-25 09:51:00,
2013-12-25 04:53:00,13.0,4.0,30.19,South,180,1.0,1.0,69,0.00,,,0.00,TxWx,2013-12-25 09:53:00,
2013-12-25 04:54:00,-5.0,-8.0,30.18,West,270,5.0,5.0,90,0.00,,,0.00,TxWx,2013-12-25 09:54:00,
2013-12-25 04:55:00,13.0,4.0,30.19,SE,135,1.0,2.0,69,0.00,,,0.00,TxWx,2013-12-25 09:55:00,
2013-12-25 04:56:00,13.0,4.0,30.19,East,90,3.0,3.0,69,0.00,,,0.00,TxWx,2013-12-25 09:56:00,
2013-12-25 04:57:00,13.0,4.0,30.19,South,180,1.0,2.0,69,0.00,,,0.00,TxWx,2013-12-25 09:57:00,
2013-12-25 04:59:00,-5.0,-8.0,30.18,NNW,337,4.0,5.0,90,0.00,,,0.00,TxWx,2013-12-25 09:59:00,
2013-12-25 05:00:00,13.0,4.0,30.20,South,180,0.0,1.0,69,0.00,,,0.00,TxWx,2013-12-25 10:00:00,
2013-12-25 05:01:00,13.0,4.0,30.20,ESE,112,1.0,2.0,69,0.00,,,0.00,TxWx,2013-12-25 10:01:00,
2013-12-25 05:03:00,13.0,4.0,30.19,SE,135,1.0,2.0,69,0.00,,,0.00,TxWx,2013-12-25 10:03:00,
2013-12-25 05:04:00,-5.0,-8.0,30.19,NW,315,7.0,10.0,91,0.00,,,0.00,TxWx,2013-12-25 10:04:00,
2013-12-25 05:06:00,13.0,4.0,30.19,South,180,1.0,2.0,69,0.00,,,0.00,TxWx,2013-12-25 10:06:00,
2013-12-25 05:09:00,-5.0,-8.0,30.19,NNW,337,5.0,8.0,91,0.00,,,0.00,TxWx,2013-12-25 10:09:00,
2013-12-25 05:14:00,-5.0,-8.0,30.19,West,270,3.0,4.0,91,0.00,,,0.00,TxWx,2013-12-25 10:14:00,
2013-12-25 05:19:00,-5.0,-8.0,30.19,NW,315,4.0,5.0,91,0.00,,,0.00,TxWx,2013-12-25 10:19:00,
2013-12-25 05:24:00,-5.0,-8.0,30.19,West,270,3.0,5.0,91,0.00,,,0.00,TxWx,2013-12-25 10:24:00,
2013-12-25 05:29:00,-5.0,-8.0,30.19,SW,225,4.0,8.0,91,0.00,,,0.00,TxWx,2013-12-25 10:29:00,
2013-12-25 05:34:00,-5.0,-8.0,30.19,SW,225,5.0,5.0,91,0.00,,,0.00,TxWx,2013-12-25 10:34:00,
2013-12-25 05:39:00,-5.0,-8.0,30.20,North,0,3.0,3.0,91,0.00,,,0.00,TxWx,2013-12-25 10:39:00,
2013-12-25 05:44:00,-5.0,-8.0,30.20,NW,315,5.0,5.0,91,0.00,,,0.00,TxWx,2013-12-25 10:44:00,
2013-12-25 05:49:00,-5.0,-8.0,30.20,WSW,247,5.0,6.0,91,0.00,,,0.00,TxWx,2013-12-25 10:49:00,
2013-12-25 05:54:00,-5.0,-8.0,30.21,West,270,9.0,13.0,91,0.00,,,0.00,TxWx,2013-12-25 10:54:00,
2013-12-25 05:59:00,-5.0,-8.0,30.21,SW,225,3.0,5.0,91,0.00,,,0.00,TxWx,2013-12-25 10:59:00,
2013-12-25 06:04:00,-5.0,-8.0,30.21,WNW,292,4.0,5.0,91,0.00,,,0.00,TxWx,2013-12-25 11:04:00,
2013-12-25 06:09:00,-5.0,-8.0,30.21,WSW,247,8.0,8.0,91,0.00,,,0.00,TxWx,2013-12-25 11:09:00,
2013-12-25 06:14:00,-6.0,-9.0,30.20,WNW,292,7.0,7.0,92,0.00,,,0.00,TxWx,2013-12-25 11:14:00,
2013-12-25 06:19:00,-6.0,-9.0,30.21,WNW,292,6.0,6.0,92,0.00,,,0.00,TxWx,2013-12-25 11:19:00,
2013-12-25 06:24:00,-6.0,-9.0,30.21,WSW,247,3.0,4.0,92,0.00,,,0.00,TxWx,2013-12-25 11:24:00,
2013-12-25 06:29:00,-6.0,-9.0,30.21,SW,225,3.0,4.0,92,0.00,,,0.00,TxWx,2013-12-25 11:29:00,
2013-12-25 06:34:00,-6.0,-9.0,30.21,WNW,292,4.0,4.0,92,0.00,,,0.00,TxWx,2013-12-25 11:34:00,
2013-12-25 06:39:00,-6.0,-9.0,30.21,West,270,5.0,5.0,92,0.00,,,0.00,TxWx,2013-12-25 11:39:00,
2013-12-25 06:44:00,-6.0,-9.0,30.21,WSW,247,3.0,5.0,92,0.00,,,0.00,TxWx,2013-12-25 11:44:00,
2013-12-25 06:49:00,-6.0,-9.0,30.21,WNW,292,3.0,5.0,92,0.00,,,0.00,TxWx,2013-12-25 11:49:00,
2013-12-25 06:54:00,-6.0,-9.0,30.22,WNW,292,3.0,3.0,92,0.00,,,0.00,TxWx,2013-12-25 11:54:00,
2013-12-25 06:59:00,-6.0,-9.0,30.22,SE,135,1.0,3.0,92,0.00,,,0.00,TxWx,2013-12-25 11:59:00,
2013-12-25 07:04:00,-6.0,-9.0,30.21,WSW,247,2.0,3.0,92,0.00,,,0.00,TxWx,2013-12-25 12:04:00,
2013-12-25 07:09:00,-6.0,-9.0,30.22,WSW,247,3.0,5.0,93,0.00,,,0.00,TxWx,2013-12-25 12:09:00,
2013-12-25 07:14:00,-6.0,-9.0,30.22,WSW,247,3.0,4.0,93,0.00,,,0.00,TxWx,2013-12-25 12:14:00,
2013-12-25 07:19:00,-6.0,-9.0,30.22,NNW,337,2.0,3.0,93,0.00,,,0.00,TxWx,2013-12-25 12:19:00,
2013-12-25 07:24:00,-6.0,-9.0,30.22,WSW,247,4.0,4.0,93,0.00,,,0.00,TxWx,2013-12-25 12:24:00,
2013-12-25 07:29:00,-6.0,-9.0,30.23,WSW,247,5.0,5.0,93,0.00,,,0.00,TxWx,2013-12-25 12:29:00,
2013-12-25 07:34:00,-6.0,-9.0,30.23,WNW,292,5.0,5.0,92,0.00,,,0.00,TxWx,2013-12-25 12:34:00,
2013-12-25 07:39:00,-6.0,-9.0,30.23,West,270,4.0,5.0,92,0.00,,,0.00,TxWx,2013-12-25 12:39:00,
2013-12-25 07:44:00,-6.0,-9.0,30.23,West,270,4.0,5.0,92,0.00,,,0.00,TxWx,2013-12-25 12:44:00,
2013-12-25 07:49:00,-6.0,-9.0,30.24,WSW,247,5.0,5.0,93,0.00,,,0.00,TxWx,2013-12-25 12:49:00,
2013-12-25 07:54:00,-6.0,-9.0,30.24,South,180,1.0,2.0,93,0.00,,,0.00,TxWx,2013-12-25 12:54:00,
2013-12-25 07:59:00,-6.0,-9.0,30.25,South,180,1.0,1.0,93,0.00,,,0.00,TxWx,2013-12-25 12:59:00,
2013-12-25 08:04:00,-6.0,-9.0,30.25,SW,225,1.0,1.0,93,0.00,,,0.00,TxWx,2013-12-25 13:04:00,
2013-12-25 08:09:00,-5.0,-8.0,30.24,SW,225,4.0,5.0,93,0.00,,,0.00,TxWx,2013-12-25 13:09:00,
2013-12-25 08:14:00,-5.0,-8.0,30.24,West,270,5.0,5.0,93,0.00,,,0.00,TxWx,2013-12-25 13:14:00,
2013-12-25 08:19:00,-5.0,-8.0,30.24,West,270,5.0,6.0,93,0.00,,,0.00,TxWx,2013-12-25 13:19:00,
2013-12-25 08:24:00,-4.0,-7.0,30.23,WNW,292,5.0,5.0,93,0.00,,,0.00,TxWx,2013-12-25 13:24:00,
2013-12-25 08:29:00,-4.0,-7.0,30.23,WNW,292,5.0,6.0,92,0.00,,,0.00,TxWx,2013-12-25 13:29:00,
2013-12-25 08:34:00,-4.0,-7.0,30.23,NNW,337,5.0,5.0,92,0.00,,,0.00,TxWx,2013-12-25 13:34:00,
2013-12-25 08:39:00,-3.0,-6.0,30.24,West,270,2.0,3.0,92,0.00,,,0.00,TxWx,2013-12-25 13:39:00,
2013-12-25 08:44:00,-3.0,-6.0,30.24,SW,225,5.0,5.0,92,0.00,,,0.00,TxWx,2013-12-25 13:44:00,
2013-12-25 08:49:00,-3.0,-6.0,30.24,West,270,4.0,4.0,91,0.00,,,0.00,TxWx,2013-12-25 13:49:00,
2013-12-25 08:54:00,-2.0,-5.0,30.24,SSW,202,5.0,6.0,91,0.00,,,0.00,TxWx,2013-12-25 13:54:00,
2013-12-25 08:59:00,-2.0,-5.0,30.24,West,270,4.0,4.0,90,0.00,,,0.00,TxWx,2013-12-25 13:59:00,
2013-12-25 09:04:00,-2.0,-5.0,30.24,SSW,202,3.0,5.0,90,0.00,,,0.00,TxWx,2013-12-25 14:04:00,
2013-12-25 09:09:00,-2.0,-5.0,30.24,West,270,3.0,5.0,90,0.00,,,0.00,TxWx,2013-12-25 14:09:00,
2013-12-25 09:14:00,-1.0,-4.0,30.24,NNE,22,2.0,3.0,89,0.00,,,0.00,TxWx,2013-12-25 14:14:00,
2013-12-25 09:19:00,-1.0,-5.0,30.24,WSW,247,4.0,4.0,89,0.00,,,0.00,TxWx,2013-12-25 14:19:00,
2013-12-25 09:24:00,-1.0,-5.0,30.24,SW,225,2.0,3.0,88,0.00,,,0.00,TxWx,2013-12-25 14:24:00,
2013-12-25 09:29:00,0.0,-4.0,30.24,WNW,292,4.0,5.0,88,0.00,,,0.00,TxWx,2013-12-25 14:29:00,
2013-12-25 09:33:00,0.0,-4.0,30.24,SW,225,2.0,3.0,88,0.00,,,0.00,TxWx,2013-12-25 14:33:00,
2013-12-25 09:38:00,0.0,-4.0,30.24,West,270,3.0,5.0,87,0.00,,,0.00,TxWx,2013-12-25 14:38:00,
2013-12-25 09:43:00,0.0,-4.0,30.24,West,270,5.0,5.0,86,0.00,,,0.00,TxWx,2013-12-25 14:43:00,
2013-12-25 09:48:00,0.0,-4.0,30.25,WSW,247,6.0,7.0,86,0.00,,,0.00,TxWx,2013-12-25 14:48:00,
2013-12-25 09:53:00,1.0,-3.0,30.25,SSE,157,1.0,1.0,85,0.00,,,0.00,TxWx,2013-12-25 14:53:00,
2013-12-25 09:58:00,1.0,-3.0,30.25,SSW,202,1.0,1.0,86,0.00,,,0.00,TxWx,2013-12-25 14:58:00,
2013-12-25 10:04:00,2.0,-2.0,30.25,SSW,202,5.0,6.0,85,0.00,,,0.00,TxWx,2013-12-25 15:04:00,
2013-12-25 10:09:00,2.0,-2.0,30.25,West,270,3.0,6.0,85,0.00,,,0.00,TxWx,2013-12-25 15:09:00,
2013-12-25 10:14:00,2.0,-3.0,30.26,SW,225,2.0,3.0,84,0.00,,,0.00,TxWx,2013-12-25 15:14:00,
2013-12-25 10:19:00,3.0,-2.0,30.25,West,270,9.0,9.0,83,0.00,,,0.00,TxWx,2013-12-25 15:19:00,
2013-12-25 10:24:00,3.0,-2.0,30.25,West,270,5.0,7.0,83,0.00,,,0.00,TxWx,2013-12-25 15:24:00,
2013-12-25 10:29:00,3.0,-2.0,30.25,West,270,6.0,7.0,82,0.00,,,0.00,TxWx,2013-12-25 15:29:00,
2013-12-25 10:34:00,3.0,-2.0,30.25,SSW,202,6.0,7.0,82,0.00,,,0.00,TxWx,2013-12-25 15:34:00,
2013-12-25 10:39:00,3.0,-2.0,30.25,ESE,112,3.0,4.0,82,0.00,,,0.00,TxWx,2013-12-25 15:39:00,
2013-12-25 10:44:00,4.0,-1.0,30.24,SW,225,3.0,4.0,82,0.00,,,0.00,TxWx,2013-12-25 15:44:00,
2013-12-25 10:49:00,5.0,0.0,30.24,SSW,202,2.0,3.0,82,0.00,,,0.00,TxWx,2013-12-25 15:49:00,
2013-12-25 10:54:00,5.0,-1.0,30.24,SSW,202,1.0,1.0,81,0.00,,,0.00,TxWx,2013-12-25 15:54:00,
2013-12-25 10:59:00,6.0,0.0,30.23,WSW,247,1.0,2.0,81,0.00,,,0.00,TxWx,2013-12-25 15:59:00,
2013-12-25 11:04:00,6.0,0.0,30.23,SE,135,3.0,3.0,81,0.00,,,0.00,TxWx,2013-12-25 16:04:00,
2013-12-25 11:09:00,7.0,1.0,30.23,SSW,202,1.0,1.0,81,0.00,,,0.00,TxWx,2013-12-25 16:09:00,
2013-12-25 11:14:00,7.0,1.0,30.23,ESE,112,3.0,3.0,80,0.00,,,0.00,TxWx,2013-12-25 16:14:00,
2013-12-25 11:19:00,7.0,1.0,30.23,SSW,202,0.0,1.0,80,0.00,,,0.00,TxWx,2013-12-25 16:19:00,
2013-12-25 11:24:00,7.0,1.0,30.23,SSE,157,0.0,1.0,80,0.00,,,0.00,TxWx,2013-12-25 16:24:00,
2013-12-25 11:29:00,8.0,2.0,30.23,West,270,1.0,3.0,79,0.00,,,0.00,TxWx,2013-12-25 16:29:00,
2013-12-25 11:34:00,8.0,1.0,30.23,WNW,292,5.0,5.0,77,0.00,,,0.00,TxWx,2013-12-25 16:34:00,
2013-12-25 11:39:00,8.0,1.0,30.24,WSW,247,1.0,2.0,77,0.00,,,0.00,TxWx,2013-12-25 16:39:00,
2013-12-25 11:44:00,8.0,1.0,30.24,South,180,3.0,6.0,76,0.00,,,0.00,TxWx,2013-12-25 16:44:00,
2013-12-25 11:49:00,9.0,2.0,30.23,West,270,5.0,5.0,75,0.00,,,0.00,TxWx,2013-12-25 16:49:00,
2013-12-25 11:54:00,9.0,2.0,30.24,West,270,2.0,3.0,75,0.00,,,0.00,TxWx,2013-12-25 16:54:00,
2013-12-25 11:59:00,9.0,1.0,30.24,NW,315,5.0,6.0,74,0.00,,,0.00,TxWx,2013-12-25 16:59:00,
2013-12-25 12:04:00,9.0,1.0,30.24,WNW,292,5.0,5.0,73,0.00,,,0.00,TxWx,2013-12-25 17:04:00,
2013-12-25 12:09:00,9.0,1.0,30.23,SW,225,3.0,6.0,73,0.00,,,0.00,TxWx,2013-12-25 17:09:00,
2013-12-25 12:14:00,10.0,2.0,30.23,South,180,1.0,2.0,73,0.00,,,0.00,TxWx,2013-12-25 17:14:00,
2013-12-25 12:19:00,10.0,2.0,30.23,SW,225,1.0,2.0,73,0.00,,,0.00,TxWx,2013-12-25 17:19:00,
2013-12-25 12:24:00,11.0,3.0,30.23,WNW,292,5.0,5.0,73,0.00,,,0.00,TxWx,2013-12-25 17:24:00,
2013-12-25 12:29:00,11.0,2.0,30.22,SSW,202,1.0,1.0,71,0.00,,,0.00,TxWx,2013-12-25 17:29:00,
2013-12-25 12:34:00,12.0,4.0,30.22,SSE,157,1.0,1.0,72,0.00,,,0.00,TxWx,2013-12-25 17:34:00,
2013-12-25 12:39:00,12.0,4.0,30.21,SE,135,2.0,3.0,72,0.00,,,0.00,TxWx,2013-12-25 17:39:00,
2013-12-25 12:44:00,12.0,3.0,30.21,ESE,112,3.0,5.0,71,0.00,,,0.00,TxWx,2013-12-25 17:44:00,
2013-12-25 12:49:00,12.0,3.0,30.20,NW,315,2.0,2.0,70,0.00,,,0.00,TxWx,2013-12-25 17:49:00,
2013-12-25 12:54:00,11.0,2.0,30.20,NNW,337,2.0,2.0,70,0.00,,,0.00,TxWx,2013-12-25 17:54:00,
2013-12-25 12:59:00,11.0,2.0,30.20,North,0,3.0,3.0,70,0.00,,,0.00,TxWx,2013-12-25 17:59:00,
2013-12-25 13:04:00,11.0,2.0,30.20,South,180,1.0,2.0,71,0.00,,,0.00,TxWx,2013-12-25 18:04:00,
2013-12-25 13:09:00,12.0,3.0,30.20,ESE,112,2.0,3.0,71,0.00,,,0.00,TxWx,2013-12-25 18:09:00,
2013-12-25 13:14:00,12.0,3.0,30.20,SE,135,3.0,3.0,71,0.00,,,0.00,TxWx,2013-12-25 18:14:00,
2013-12-25 13:19:00,12.0,3.0,30.20,SSE,157,1.0,1.0,71,0.00,,,0.00,TxWx,2013-12-25 18:19:00,
2013-12-25 13:24:00,12.0,3.0,30.20,West,270,1.0,2.0,71,0.00,,,0.00,TxWx,2013-12-25 18:24:00,
2013-12-25 13:29:00,13.0,4.0,30.20,NNE,22,3.0,3.0,71,0.00,,,0.00,TxWx,2013-12-25 18:29:00,
2013-12-25 13:34:00,13.0,4.0,30.20,West,270,1.0,3.0,70,0.00,,,0.00,TxWx,2013-12-25 18:34:00,
2013-12-25 13:39:00,13.0,4.0,30.20,ESE,112,3.0,4.0,70,0.00,,,0.00,TxWx,2013-12-25 18:39:00,
2013-12-25 13:44:00,13.0,4.0,30.20,SE,135,1.0,2.0,69,0.00,,,0.00,TxWx,2013-12-25 18:44:00,
2013-12-25 13:49:00,13.0,4.0,30.20,East,90,1.0,2.0,69,0.00,,,0.00,TxWx,2013-12-25 18:49:00,
2013-12-25 13:54:00,13.0,4.0,30.20,NNW,337,1.0,2.0,69,0.00,,,0.00,TxWx,2013-12-25 18:54:00,
2013-12-25 13:59:00,13.0,3.0,30.20,North,0,3.0,3.0,68,0.00,,,0.00,TxWx,2013-12-25 18:59:00,
2013-12-25 14:00:00,11.0,4.0,30.10,ESE,112,6.0,6.0,78,0.00,,,0.00,TxWx,2013-12-25 19:00:00,
2013-12-25 14:01:00,11.0,4.0,30.10,ESE,112,5.0,6.0,78,0.00,,,0.00,TxWx,2013-12-25 19:01:00,
2013-12-25 14:02:00,11.0,4.0,30.10,ESE,112,5.0,7.0,78,0.00,,,0.00,TxWx,2013-12-25 19:02:00,
2013-12-25 14:03:00,11.0,4.0,30.10,East,90,6.0,6.0,78,0.00,,,0.00,TxWx,2013-12-25 19:03:00,
2013-12-25 14:04:00,13.0,3.0,30.20,West,270,1.0,1.0,68,0.00,,,0.00,TxWx,2013-12-25 19:04:00,
2013-12-25 14:05:00,11.0,4.0,30.10,ESE,112,8.0,9.0,78,0.00,,,0.00,TxWx,2013-12-25 19:05:00,
2013-12-25 14:06:00,11.0,4.0,30.10,ENE,67,1.0,1.0,78,0.00,,,0.00,TxWx,2013-12-25 19:06:00,
2013-12-25 14:07:00,11.0,4.0,30.10,East,90,4.0,4.0,78,0.00,,,0.00,TxWx,2013-12-25 19:07:00,
2013-12-25 14:08:00,11.0,4.0,30.10,NE,45,5.0,5.0,78,0.00,,,0.00,TxWx,2013-12-25 19:08:00,
2013-12-25 14:09:00,13.0,3.0,30.20,SE,135,1.0,1.0,68,0.00,,,0.00,TxWx,2013-12-25 19:09:00,
2013-12-25 14:10:00,11.0,4.0,30.10,SE,135,1.0,2.0,78,0.00,,,0.00,TxWx,2013-12-25 19:10:00,
2013-12-25 14:11:00,11.0,4.0,30.10,East,90,1.0,2.0,78,0.00,,,0.00,TxWx,2013-12-25 19:11:00,
2013-12-25 14:12:00,11.0,4.0,30.10,South,180,1.0,2.0,78,0.00,,,0.00,TxWx,2013-12-25 19:12:00,
2013-12-25 14:13:00,11.0,4.0,30.10,East,90,5.0,5.0,78,0.00,,,0.00,TxWx,2013-12-25 19:13:00,
2013-12-25 14:14:00,13.0,3.0,30.19,SSW,202,0.0,1.0,68,0.00,,,0.00,TxWx,2013-12-25 19:14:00,
2013-12-25 14:15:00,11.0,4.0,30.10,NNE,22,3.0,4.0,78,0.00,,,0.00,TxWx,2013-12-25 19:15:00,
2013-12-25 14:16:00,11.0,4.0,30.10,East,90,4.0,5.0,78,0.00,,,0.00,TxWx,2013-12-25 19:16:00,
2013-12-25 14:17:00,11.0,4.0,30.10,ESE,112,1.0,2.0,78,0.00,,,0.00,TxWx,2013-12-25 19:17:00,
2013-12-25 14:18:00,11.0,4.0,30.10,NE,45,5.0,5.0,78,0.00,,,0.00,TxWx,2013-12-25 19:18:00,
2013-12-25 14:19:00,13.0,4.0,30.19,ESE,112,2.0,2.0,69,0.00,,,0.00,TxWx,2013-12-25 19:19:00,
2013-12-25 14:20:00,11.0,4.0,30.10,SE,135,1.0,2.0,78,0.00,,,0.00,TxWx,2013-12-25 19:20:00,
2013-12-25 14:21:00,11.0,4.0,30.10,NE,45,5.0,5.0,78,0.00,,,0.00,TxWx,2013-12-25 19:21:00,
2013-12-25 14:22:00,11.0,4.0,30.10,South,180,0.0,1.0,78,0.00,,,0.00,TxWx,2013-12-25 19:22:00,
2013-12-25 14:23:00,11.0,4.0,30.10,SE,135,3.0,3.0,78,0.00,,,0.00,TxWx,2013-12-25 19:23:00,
2013-12-25 14:24:00,13.0,4.0,30.19,ESE,112,1.0,1.0,69,0.00,,,0.00,TxWx,2013-12-25 19:24:00,
2013-12-25 14:25:00,11.0,4.0,30.10,NNW,337,3.0,5.0,78,0.00,,,0.00,TxWx,2013-12-25 19:25:00,
2013-12-25 14:26:00,11.0,4.0,30.09,ESE,112,5.0,5.0,78,0.00,,,0.00,TxWx,2013-12-25 19:26:00,
2013-12-25 14:27:00,11.0,4.0,30.09,NE,45,5.0,5.0,78,0.00,,,0.00,TxWx,2013-12-25 19:27:00,
2013-12-25 14:28:00,11.0,4.0,30.09,East,90,2.0,3.0,78,0.00,,,0.00,TxWx,2013-12-25 19:28:00,
2013-12-25 14:29:00,13.0,3.0,30.18,ESE,112,1.0,2.0,68,0.00,,,0.00,TxWx,2013-12-25 19:29:00,
2013-12-25 14:32:00,11.0,4.0,30.09,ESE,112,4.0,5.0,78,0.00,,,0.00,TxWx,2013-12-25 19:32:00,
2013-12-25 14:33:00,11.0,4.0,30.09,East,90,4.0,4.0,78,0.00,,,0.00,TxWx,2013-12-25 19:33:00,
2013-12-25 14:34:00,13.0,3.0,30.18,ESE,112,2.0,3.0,68,0.00,,,0.00,TxWx,2013-12-25 19:34:00,
2013-12-25 14:40:00,13.0,4.0,30.18,SE,135,2.0,2.0,69,0.00,,,0.00,TxWx,2013-12-25 19:40:00,
2013-12-25 14:45:00,13.0,4.0,30.19,East,90,1.0,2.0,69,0.00,,,0.00,TxWx,2013-12-25 19:45:00,
2013-12-25 14:50:00,13.0,4.0,30.19,SSE,157,1.0,2.0,69,0.00,,,0.00,TxWx,2013-12-25 19:50:00,
2013-12-25 14:55:00,13.0,4.0,30.19,East,90,2.0,3.0,69,0.00,,,0.00,TxWx,2013-12-25 19:55:00,
2013-12-25 15:00:00,13.0,4.0,30.19,South,180,0.0,1.0,69,0.00,,,0.00,TxWx,2013-12-25 20:00:00,
2013-12-25 15:05:00,13.0,4.0,30.19,South,180,1.0,1.0,69,0.00,,,0.00,TxWx,2013-12-25 20:05:00,
2013-12-25 15:10:00,13.0,4.0,30.19,SSE,157,1.0,1.0,69,0.00,,,0.00,TxWx,2013-12-25 20:10:00,
2013-12-25 15:15:00,13.0,4.0,30.19,SSE,157,1.0,1.0,69,0.00,,,0.00,TxWx,2013-12-25 20:15:00,
2013-12-25 15:20:00,13.0,4.0,30.20,East,90,1.0,2.0,69,0.00,,,0.00,TxWx,2013-12-25 20:20:00,
2013-12-25 15:25:00,13.0,4.0,30.20,North,0,2.0,2.0,69,0.00,,,0.00,TxWx,2013-12-25 20:25:00,
2013-12-25 15:30:00,13.0,4.0,30.20,ESE,112,3.0,5.0,69,0.00,,,0.00,TxWx,2013-12-25 20:30:00,
2013-12-25 15:35:00,13.0,4.0,30.19,South,180,2.0,3.0,69,0.00,,,0.00,TxWx,2013-12-25 20:35:00,
2013-12-25 15:40:00,13.0,4.0,30.19,NW,315,1.0,1.0,69,0.00,,,0.00,TxWx,2013-12-25 20:40:00,
2013-12-25 15:45:00,13.0,4.0,30.19,South,180,0.0,1.0,69,0.00,,,0.00,TxWx,2013-12-25 20:45:00,
2013-12-25 15:50:00,14.0,4.0,30.20,SSW,202,1.0,1.0,70,0.00,,,0.00,TxWx,2013-12-25 20:50:00,
2013-12-25 15:55:00,14.0,5.0,30.20,SE,135,1.0,1.0,70,0.00,,,0.00,TxWx,2013-12-25 20:55:00,
2013-12-25 16:00:00,13.0,4.0,30.20,ESE,112,3.0,3.0,70,0.00,,,0.00,TxWx,2013-12-25 21:00:00,
2013-12-25 16:05:00,13.0,4.0,30.20,South,180,0.0,1.0,69,0.00,,,0.00,TxWx,2013-12-25 21:05:00,
2013-12-25 16:10:00,13.0,4.0,30.19,East,90,2.0,3.0,70,0.00,,,0.00,TxWx,2013-12-25 21:10:00,
2013-12-25 16:15:00,13.0,4.0,30.19,East,90,3.0,4.0,70,0.00,,,0.00,TxWx,2013-12-25 21:15:00,
2013-12-25 16:20:00,13.0,4.0,30.19,ESE,112,1.0,1.0,70,0.00,,,0.00,TxWx,2013-12-25 21:20:00,
2013-12-25 16:25:00,13.0,4.0,30.19,SE,135,1.0,3.0,71,0.00,,,0.00,TxWx,2013-12-25 21:25:00,
2013-12-25 16:30:00,12.0,3.0,30.18,ESE,112,1.0,2.0,71,0.00,,,0.00,TxWx,2013-12-25 21:30:00,
2013-12-25 16:35:00,12.0,4.0,30.18,SE,135,1.0,1.0,72,0.00,,,0.00,TxWx,2013-12-25 21:35:00,
2013-12-25 16:40:00,12.0,4.0,30.19,ESE,112,2.0,2.0,72,0.00,,,0.00,TxWx,2013-12-25 21:40:00,
2013-12-25 16:45:00,12.0,4.0,30.18,SE,135,2.0,2.0,73,0.00,,,0.00,TxWx,2013-12-25 21:45:00,
2013-12-25 16:50:00,12.0,4.0,30.18,South,180,1.0,1.0,74,0.00,,,0.00,TxWx,2013-12-25 21:50:00,
2013-12-25 16:55:00,12.0,4.0,30.19,ESE,112,4.0,4.0,74,0.00,,,0.00,TxWx,2013-12-25 21:55:00,
2013-12-25 17:00:00,11.0,3.0,30.19,SE,135,4.0,4.0,75,0.00,,,0.00,TxWx,2013-12-25 22:00:00,
2013-12-25 17:05:00,11.0,4.0,30.18,NNE,22,2.0,2.0,75,0.00,,,0.00,TxWx,2013-12-25 22:05:00,
2013-12-25 17:10:00,11.0,4.0,30.18,ESE,112,3.0,3.0,76,0.00,,,0.00,TxWx,2013-12-25 22:10:00,
2013-12-25 17:15:00,11.0,4.0,30.18,ESE,112,5.0,5.0,76,0.00,,,0.00,TxWx,2013-12-25 22:15:00,
2013-12-25 17:20:00,11.0,4.0,30.18,SE,135,6.0,6.0,76,0.00,,,0.00,TxWx,2013-12-25 22:20:00,
2013-12-25 17:25:00,11.0,4.0,30.19,ESE,112,2.0,3.0,77,0.00,,,0.00,TxWx,2013-12-25 22:25:00,
2013-12-25 17:30:00,11.0,4.0,30.19,SE,135,5.0,5.0,77,0.00,,,0.00,TxWx,2013-12-25 22:30:00,
2013-12-25 17:35:00,11.0,4.0,30.19,South,180,1.0,1.0,76,0.00,,,0.00,TxWx,2013-12-25 22:35:00,
2013-12-25 17:40:00,11.0,4.0,30.19,South,180,3.0,4.0,75,0.00,,,0.00,TxWx,2013-12-25 22:40:00,
2013-12-25 17:45:00,11.0,4.0,30.19,SSE,157,3.0,3.0,76,0.00,,,0.00,TxWx,2013-12-25 22:45:00,
2013-12-25 17:50:00,11.0,4.0,30.18,East,90,5.0,6.0,76,0.00,,,0.00,TxWx,2013-12-25 22:50:00,
2013-12-25 17:55:00,10.0,3.0,30.19,SE,135,1.0,1.0,76,0.00,,,0.00,TxWx,2013-12-25 22:55:00,
2013-12-25 18:00:00,10.0,3.0,30.19,ESE,112,3.0,4.0,76,0.00,,,0.00,TxWx,2013-12-25 23:00:00,
2013-12-25 18:05:00,10.0,3.0,30.19,East,90,4.0,5.0,77,0.00,,,0.00,TxWx,2013-12-25 23:05:00,
2013-12-25 18:10:00,10.0,3.0,30.19,East,90,2.0,5.0,78,0.00,,,0.00,TxWx,2013-12-25 23:10:00,
2013-12-25 18:15:00,10.0,4.0,30.19,East,90,3.0,5.0,78,0.00,,,0.00,TxWx,2013-12-25 23:15:00,
2013-12-25 18:20:00,10.0,3.0,30.18,SE,135,2.0,3.0,77,0.00,,,0.00,TxWx,2013-12-25 23:20:00,
2013-12-25 18:25:00,10.0,3.0,30.19,SE,135,4.0,4.0,78,0.00,,,0.00,TxWx,2013-12-25 23:25:00,
2013-12-25 18:30:00,10.0,4.0,30.19,ENE,67,4.0,4.0,78,0.00,,,0.00,TxWx,2013-12-25 23:30:00,
2013-12-25 18:35:00,10.0,4.0,30.18,East,90,6.0,8.0,78,0.00,,,0.00,TxWx,2013-12-25 23:35:00,
2013-12-25 18:40:00,10.0,3.0,30.18,SE,135,4.0,5.0,77,0.00,,,0.00,TxWx,2013-12-25 23:40:00,
2013-12-25 18:45:00,10.0,3.0,30.19,ESE,112,3.0,3.0,78,0.00,,,0.00,TxWx,2013-12-25 23:45:00,
2013-12-25 18:50:00,10.0,4.0,30.19,ESE,112,3.0,3.0,78,0.00,,,0.00,TxWx,2013-12-25 23:50:00,
2013-12-25 18:55:00,10.0,4.0,30.19,SE,135,2.0,3.0,78,0.00,,,0.00,TxWx,2013-12-25 23:55:00,
2013-12-25 19:00:00,10.0,4.0,30.19,ESE,112,3.0,3.0,79,0.00,,,0.00,TxWx,2013-12-26 00:00:00,
2013-12-25 19:05:00,10.0,4.0,30.19,SSE,157,4.0,5.0,78,0.00,,,0.00,TxWx,2013-12-26 00:05:00,
2013-12-25 19:10:00,10.0,4.0,30.19,East,90,5.0,5.0,78,0.00,,,0.00,TxWx,2013-12-26 00:10:00,
2013-12-25 19:15:00,10.0,4.0,30.19,South,180,2.0,5.0,78,0.00,,,0.00,TxWx,2013-12-26 00:15:00,
2013-12-25 19:20:00,10.0,4.0,30.18,ENE,67,5.0,5.0,78,0.00,,,0.00,TxWx,2013-12-26 00:20:00,
2013-12-25 19:25:00,10.0,3.0,30.18,SE,135,3.0,3.0,78,0.00,,,0.00,TxWx,2013-12-26 00:25:00,
2013-12-25 19:30:00,10.0,3.0,30.18,ESE,112,4.0,5.0,78,0.00,,,0.00,TxWx,2013-12-26 00:30:00,
2013-12-25 19:35:00,10.0,3.0,30.18,ESE,112,5.0,6.0,78,0.00,,,0.00,TxWx,2013-12-26 00:35:00,
2013-12-25 19:40:00,10.0,4.0,30.18,East,90,2.0,3.0,78,0.00,,,0.00,TxWx,2013-12-26 00:40:00,
2013-12-25 19:45:00,10.0,3.0,30.18,ESE,112,4.0,4.0,77,0.00,,,0.00,TxWx,2013-12-26 00:45:00,
2013-12-25 19:50:00,10.0,3.0,30.18,ENE,67,5.0,6.0,77,0.00,,,0.00,TxWx,2013-12-26 00:50:00,
2013-12-25 19:55:00,10.0,3.0,30.18,ESE,112,3.0,3.0,78,0.00,,,0.00,TxWx,2013-12-26 00:55:00,
2013-12-25 20:00:00,10.0,4.0,30.18,East,90,5.0,6.0,78,0.00,,,0.00,TxWx,2013-12-26 01:00:00,
2013-12-25 20:05:00,10.0,4.0,30.18,ESE,112,3.0,6.0,79,0.00,,,0.00,TxWx,2013-12-26 01:05:00,
2013-12-25 20:10:00,10.0,4.0,30.18,NNE,22,3.0,3.0,78,0.00,,,0.00,TxWx,2013-12-26 01:10:00,
2013-12-25 20:15:00,10.0,4.0,30.18,ESE,112,4.0,4.0,79,0.00,,,0.00,TxWx,2013-12-26 01:15:00,
2013-12-25 20:17:00,12.0,10.0,30.01,North,0,2.0,3.0,98,0.00,,,0.00,TxWx,2013-12-26 01:17:00,
2013-12-25 20:20:00,10.0,4.0,30.17,ENE,67,5.0,7.0,79,0.00,,,0.00,TxWx,2013-12-26 01:20:00,
2013-12-25 20:21:00,12.0,10.0,30.01,ESE,112,1.0,1.0,98,0.00,,,0.00,TxWx,2013-12-26 01:21:00,
2013-12-25 20:22:00,12.0,10.0,30.01,ESE,112,3.0,4.0,98,0.00,,,0.00,TxWx,2013-12-26 01:22:00,
2013-12-25 20:23:00,12.0,10.0,30.01,ESE,112,3.0,3.0,98,0.00,,,0.00,TxWx,2013-12-26 01:23:00,
2013-12-25 20:25:00,10.0,4.0,30.17,SSW,202,1.0,3.0,79,0.00,,,0.00,TxWx,2013-12-26 01:25:00,
2013-12-25 20:26:00,12.0,10.0,30.01,ESE,112,2.0,2.0,98,0.00,,,0.00,TxWx,2013-12-26 01:26:00,
2013-12-25 20:27:00,12.0,11.0,30.01,ESE,112,3.0,3.0,98,0.00,,,0.00,TxWx,2013-12-26 01:27:00,
2013-12-25 20:28:00,12.0,11.0,30.00,SE,135,2.0,2.0,98,0.00,,,0.00,TxWx,2013-12-26 01:28:00,
2013-12-25 20:29:00,12.0,11.0,30.00,NE,45,2.0,3.0,98,0.00,,,0.00,TxWx,2013-12-26 01:29:00,
2013-12-25 20:30:00,10.0,4.0,30.17,ESE,112,4.0,6.0,79,0.00,,,0.00,TxWx,2013-12-26 01:30:00,
2013-12-25 20:33:00,12.0,11.0,30.00,ESE,112,2.0,3.0,98,0.00,,,0.00,TxWx,2013-12-26 01:33:00,
2013-12-25 20:34:00,12.0,11.0,30.00,SE,135,4.0,4.0,98,0.00,,,0.00,TxWx,2013-12-26 01:34:00,
2013-12-25 20:35:00,10.0,4.0,30.16,ESE,112,2.0,2.0,79,0.00,,,0.00,TxWx,2013-12-26 01:35:00,
2013-12-25 20:36:00,12.0,11.0,30.00,ENE,67,3.0,3.0,98,0.00,,,0.00,TxWx,2013-12-26 01:36:00,
2013-12-25 20:40:00,10.0,4.0,30.16,ENE,67,3.0,3.0,80,0.00,,,0.00,TxWx,2013-12-26 01:40:00,
2013-12-25 20:44:00,10.0,4.0,30.16,ENE,67,3.0,3.0,80,0.00,,,0.00,TxWx,2013-12-26 01:44:00,
2013-12-25 20:49:00,10.0,4.0,30.16,ESE,112,3.0,3.0,80,0.00,,,0.00,TxWx,2013-12-26 01:49:00,
2013-12-25 20:54:00,10.0,4.0,30.16,SE,135,3.0,3.0,80,0.00,,,0.00,TxWx,2013-12-26 01:54:00,
2013-12-25 20:59:00,10.0,4.0,30.16,ESE,112,5.0,5.0,80,0.00,,,0.00,TxWx,2013-12-26 01:59:00,
2013-12-25 21:04:00,10.0,4.0,30.16,South,180,1.0,1.0,81,0.00,,,0.00,TxWx,2013-12-26 02:04:00,
2013-12-25 21:09:00,10.0,4.0,30.15,SE,135,3.0,3.0,81,0.00,,,0.00,TxWx,2013-12-26 02:09:00,
2013-12-25 21:14:00,10.0,4.0,30.15,ESE,112,1.0,2.0,81,0.00,,,0.00,TxWx,2013-12-26 02:14:00,
2013-12-25 21:19:00,10.0,4.0,30.15,East,90,5.0,5.0,81,0.00,,,0.00,TxWx,2013-12-26 02:19:00,
2013-12-25 21:24:00,10.0,4.0,30.15,North,0,4.0,5.0,81,0.00,,,0.00,TxWx,2013-12-26 02:24:00,
2013-12-25 21:29:00,10.0,4.0,30.15,ESE,112,2.0,3.0,81,0.00,,,0.00,TxWx,2013-12-26 02:29:00,
2013-12-25 21:34:00,10.0,4.0,30.15,SE,135,3.0,5.0,81,0.00,,,0.00,TxWx,2013-12-26 02:34:00,
2013-12-25 21:39:00,10.0,4.0,30.15,ESE,112,3.0,4.0,81,0.00,,,0.00,TxWx,2013-12-26 02:39:00,
2013-12-25 21:44:00,10.0,4.0,30.15,East,90,3.0,5.0,81,0.00,,,0.00,TxWx,2013-12-26 02:44:00,
2013-12-25 21:49:00,10.0,4.0,30.15,East,90,2.0,3.0,81,0.00,,,0.00,TxWx,2013-12-26 02:49:00,
2013-12-25 21:54:00,10.0,4.0,30.15,SE,135,2.0,3.0,81,0.00,,,0.00,TxWx,2013-12-26 02:54:00,
2013-12-25 21:59:00,10.0,4.0,30.14,SE,135,4.0,5.0,81,0.00,,,0.00,TxWx,2013-12-26 02:59:00,
2013-12-25 22:02:00,13.0,12.0,29.99,SE,135,1.0,1.0,99,0.00,,,0.00,TxWx,2013-12-26 03:02:00,
2013-12-25 22:04:00,10.0,4.0,30.14,NNE,22,3.0,5.0,81,0.00,,,0.00,TxWx,2013-12-26 03:04:00,
2013-12-25 22:05:00,13.0,12.0,29.99,East,90,5.0,5.0,99,0.00,,,0.00,TxWx,2013-12-26 03:05:00,
2013-12-25 22:08:00,13.0,12.0,29.99,SE,135,1.0,2.0,99,0.00,,,0.00,TxWx,2013-12-26 03:08:00,
2013-12-25 22:09:00,10.0,4.0,30.14,ESE,112,6.0,6.0,81,0.00,,,0.00,TxWx,2013-12-26 03:09:00,
2013-12-25 22:11:00,13.0,12.0,29.99,SE,135,3.0,3.0,99,0.00,,,0.00,TxWx,2013-12-26 03:11:00,
2013-12-25 22:14:00,10.0,4.0,30.14,East,90,4.0,5.0,81,0.00,,,0.00,TxWx,2013-12-26 03:14:00,
2013-12-25 22:15:00,13.0,12.0,29.99,ESE,112,2.0,3.0,99,0.00,,,0.00,TxWx,2013-12-26 03:15:00,
2013-12-25 22:18:00,13.0,13.0,29.98,ESE,112,3.0,3.0,100,0.00,,,0.00,TxWx,2013-12-26 03:18:00,
2013-12-25 22:19:00,10.0,4.0,30.14,ESE,112,5.0,5.0,80,0.00,,,0.00,TxWx,2013-12-26 03:19:00,
2013-12-25 22:20:00,13.0,13.0,29.98,ENE,67,4.0,4.0,100,0.00,,,0.00,TxWx,2013-12-26 03:20:00,
2013-12-25 22:23:00,13.0,12.0,29.98,SE,135,3.0,4.0,99,0.00,,,0.00,TxWx,2013-12-26 03:23:00,
2013-12-25 22:24:00,10.0,4.0,30.13,SE,135,3.0,5.0,81,0.00,,,0.00,TxWx,2013-12-26 03:24:00,
2013-12-25 22:26:00,13.0,12.0,29.98,ENE,67,3.0,4.0,99,0.00,,,0.00,TxWx,2013-12-26 03:26:00,
2013-12-25 22:27:00,13.0,12.0,29.98,ESE,112,1.0,3.0,99,0.00,,,0.00,TxWx,2013-12-26 03:27:00,
2013-12-25 22:28:00,13.0,13.0,29.98,ESE,112,3.0,5.0,100,0.00,,,0.00,TxWx,2013-12-26 03:28:00,
2013-12-25 22:29:00,10.0,4.0,30.14,ESE,112,4.0,5.0,82,0.00,,,0.00,TxWx,2013-12-26 03:29:00,
2013-12-25 22:33:00,13.0,13.0,29.98,ESE,112,3.0,3.0,100,0.00,,,0.00,TxWx,2013-12-26 03:33:00,
2013-12-25 22:34:00,10.0,4.0,30.14,SE,135,3.0,3.0,82,0.00,,,0.00,TxWx,2013-12-26 03:34:00,
2013-12-25 22:39:00,10.0,4.0,30.13,SE,135,5.0,6.0,81,0.00,,,0.00,TxWx,2013-12-26 03:39:00,
2013-12-25 22:44:00,10.0,4.0,30.13,SE,135,4.0,5.0,81,0.00,,,0.00,TxWx,2013-12-26 03:44:00,
2013-12-25 22:49:00,10.0,4.0,30.13,SE,135,4.0,6.0,81,0.00,,,0.00,TxWx,2013-12-26 03:49:00,
2013-12-25 22:54:00,10.0,4.0,30.13,SSE,157,3.0,5.0,81,0.00,,,0.00,TxWx,2013-12-26 03:54:00,
2013-12-25 22:59:00,10.0,4.0,30.13,SE,135,1.0,2.0,80,0.00,,,0.00,TxWx,2013-12-26 03:59:00,
2013-12-25 23:04:00,10.0,4.0,30.12,SSE,157,2.0,3.0,81,0.00,,,0.00,TxWx,2013-12-26 04:04:00,
2013-12-25 23:09:00,10.0,4.0,30.12,SSE,157,2.0,2.0,81,0.00,,,0.00,TxWx,2013-12-26 04:09:00,
2013-12-25 23:14:00,10.0,4.0,30.12,ESE,112,3.0,4.0,81,0.00,,,0.00,TxWx,2013-12-26 04:14:00,
2013-12-25 23:19:00,10.0,4.0,30.12,East,90,2.0,3.0,80,0.00,,,0.00,TxWx,2013-12-26 04:19:00,
2013-12-25 23:24:00,10.0,4.0,30.12,SSE,157,4.0,6.0,81,0.00,,,0.00,TxWx,2013-12-26 04:24:00,
2013-12-25 23:29:00,11.0,5.0,30.12,SSE,157,1.0,3.0,81,0.00,,,0.00,TxWx,2013-12-26 04:29:00,
2013-12-25 23:34:00,11.0,5.0,30.11,South,180,1.0,2.0,80,0.00,,,0.00,TxWx,2013-12-26 04:34:00,
2013-12-25 23:39:00,10.0,4.0,30.11,ESE,112,5.0,6.0,79,0.00,,,0.00,TxWx,2013-12-26 04:39:00,
2013-12-25 23:44:00,11.0,5.0,30.11,ESE,112,5.0,6.0,79,0.00,,,0.00,TxWx,2013-12-26 04:44:00,
2013-12-25 23:49:00,11.0,5.0,30.11,ESE,112,5.0,6.0,79,0.00,,,0.00,TxWx,2013-12-26 04:49:00,
2013-12-25 23:54:00,11.0,5.0,30.11,East,90,3.0,3.0,79,0.00,,,0.00,TxWx,2013-12-26 04:54:00,
2013-12-25 23:59:00,11.0,4.0,30.11,ESE,112,5.0,6.0,78,0.00,,,0.00,TxWx,2013-12-26 04:59:00,